Time;durP1;ratioP1;P1;durP2;ratioP2;P2;SDS_P1;SDS_P2;PMS_P1;PMS_P2;Temp;Humidity;BMP_temperature;BMP_pressure;BME280_temperature;BME280_humidity;BME280_pressure;Samples;Min_cycle;Max_cycle;Signal;HPM_P1;HPM_P2
2023/10/27 00:02:19;;;;;;;7.25;5.90;;;;;;;;;;9719106;28;21067;-76
2023/10/27 00:07:20;;;;;;;5.20;4.53;;;;;;;;;;9733309;28;20222;-76
2023/10/27 00:12:21;;;;;;;9.98;4.97;;;;;;;;;;9737830;28;20225;-77
2023/10/27 00:17:23;;;;;;;6.97;5.07;;;;;;;;;;9709955;28;21764;-76
2023/10/27 00:22:25;;;;;;;7.35;4.53;;;;;;;;;;9633537;28;21615;-76
2023/10/27 00:27:27;;;;;;;8.25;5.63;;;;;;;;;;9687326;28;20238;-75
2023/10/27 00:32:28;;;;;;;9.10;5.97;;;;;;;;;;9710838;28;20971;-78
2023/10/27 00:37:30;;;;;;;11.70;6.70;;;;;;;;;;9712119;28;20225;-75
2023/10/27 00:42:31;;;;;;;9.15;5.97;;;;;;;;;;9729027;28;22358;-76
2023/10/27 00:47:33;;;;;;;13.80;6.00;;;;;;;;;;9713804;28;20237;-76
2023/10/27 00:52:34;;;;;;;9.35;5.85;;;;;;;;;;9718294;28;20276;-76
2023/10/27 00:57:36;;;;;;;13.27;6.68;;;;;;;;;;9637926;28;20348;-78
2023/10/27 01:02:38;;;;;;;9.90;5.70;;;;;;;;;;9669561;28;20737;-75
2023/10/27 01:07:40;;;;;;;9.70;6.40;;;;;;;;;;9701312;28;20217;-76
2023/10/27 01:12:46;;;;;;;6.18;5.07;;;;;;;;;;9731351;28;20225;-76
2023/10/27 01:17:48;;;;;;;7.00;4.28;;;;;;;;;;10010254;28;20722;-74
2023/10/27 01:22:49;;;;;;;5.70;4.63;;;;;;;;;;10460273;28;20226;-73
2023/10/27 01:27:50;;;;;;;9.35;4.75;;;;;;;;;;10451356;28;20230;-73
2023/10/27 01:32:51;;;;;;;7.18;4.50;;;;;;;;;;10442870;28;20248;-73
2023/10/27 01:37:52;;;;;;;4.78;3.85;;;;;;;;;;10442462;28;20214;-71
2023/10/27 01:42:53;;;;;;;6.75;4.57;;;;;;;;;;10442549;28;20214;-75
2023/10/27 01:47:54;;;;;;;4.38;3.58;;;;;;;;;;10459423;28;20798;-71
2023/10/27 01:52:55;;;;;;;4.75;3.47;;;;;;;;;;10460164;28;20275;-73
2023/10/27 01:57:56;;;;;;;4.25;3.55;;;;;;;;;;10441320;28;20218;-71
2023/10/27 02:02:57;;;;;;;4.38;3.55;;;;;;;;;;10457259;28;20830;-73
2023/10/27 02:08:02;;;;;;;4.35;3.65;;;;;;;;;;10443290;28;20243;-75
2023/10/27 02:13:03;;;;;;;5.03;4.47;;;;;;;;;;10447318;28;20218;-72
2023/10/27 02:18:04;;;;;;;4.95;4.18;;;;;;;;;;10429773;28;20203;-71
2023/10/27 02:23:05;;;;;;;5.57;4.18;;;;;;;;;;10440844;28;20221;-74
2023/10/27 02:28:07;;;;;;;6.32;4.13;;;;;;;;;;10438932;28;20238;-76
2023/10/27 02:33:08;;;;;;;6.20;4.15;;;;;;;;;;10440240;28;20714;-74
2023/10/27 02:38:10;;;;;;;7.60;4.80;;;;;;;;;;10456397;28;20267;-75
2023/10/27 02:43:14;;;;;;;7.53;4.20;;;;;;;;;;10443720;28;20241;-73
2023/10/27 02:48:15;;;;;;;5.63;4.15;;;;;;;;;;10447232;28;20224;-73
2023/10/27 02:53:16;;;;;;;7.40;4.82;;;;;;;;;;10429465;28;20213;-73
2023/10/27 02:58:17;;;;;;;11.45;5.40;;;;;;;;;;10456335;28;20252;-72
2023/10/27 03:03:18;;;;;;;10.52;5.97;;;;;;;;;;10440427;28;20304;-73
2023/10/27 03:08:19;;;;;;;10.68;5.95;;;;;;;;;;10457725;28;20214;-74
2023/10/27 03:13:20;;;;;;;14.25;7.10;;;;;;;;;;10455310;28;20226;-73
2023/10/27 03:18:23;;;;;;;12.52;6.45;;;;;;;;;;10439277;28;20321;-74
2023/10/27 03:23:24;;;;;;;11.90;6.40;;;;;;;;;;10111357;28;20222;-73
2023/10/27 03:28:26;;;;;;;14.95;6.05;;;;;;;;;;9811048;28;20234;-75
2023/10/27 03:33:27;;;;;;;10.75;6.35;;;;;;;;;;9808882;28;21060;-75
2023/10/27 03:38:28;;;;;;;16.20;6.85;;;;;;;;;;9824507;28;22290;-75
2023/10/27 03:43:29;;;;;;;10.65;6.75;;;;;;;;;;9824809;28;20336;-75
2023/10/27 03:48:30;;;;;;;14.43;6.85;;;;;;;;;;9816229;28;21577;-76
2023/10/27 03:53:32;;;;;;;11.85;6.78;;;;;;;;;;9640460;28;20225;-77
2023/10/27 03:58:33;;;;;;;16.38;7.68;;;;;;;;;;9613154;28;20893;-76
2023/10/27 04:03:35;;;;;;;15.52;7.15;;;;;;;;;;9654430;28;20218;-76
2023/10/27 04:08:36;;;;;;;15.85;7.82;;;;;;;;;;9709678;28;21734;-76
2023/10/27 04:13:38;;;;;;;13.35;6.82;;;;;;;;;;9722066;28;21805;-78
2023/10/27 04:18:39;;;;;;;11.07;6.45;;;;;;;;;;9763266;28;20218;-76
2023/10/27 04:23:40;;;;;;;10.55;5.97;;;;;;;;;;9754971;28;22218;-76
2023/10/27 04:28:42;;;;;;;12.32;6.35;;;;;;;;;;9735634;28;21409;-76
2023/10/27 04:33:47;;;;;;;13.77;6.45;;;;;;;;;;9750741;28;20312;-76
2023/10/27 04:38:49;;;;;;;13.00;6.40;;;;;;;;;;9672137;28;21497;-75
2023/10/27 04:43:50;;;;;;;13.48;6.25;;;;;;;;;;9722353;28;21054;-76
2023/10/27 04:48:51;;;;;;;14.95;6.82;;;;;;;;;;9718623;28;21922;-78
2023/10/27 04:53:53;;;;;;;12.40;6.03;;;;;;;;;;9708039;28;20230;-76
2023/10/27 04:58:55;;;;;;;12.90;5.97;;;;;;;;;;9729215;28;21654;-76
2023/10/27 05:03:56;;;;;;;15.05;6.53;;;;;;;;;;9362347;28;21252;-75
2023/10/27 05:08:57;;;;;;;12.05;7.03;;;;;;;;;;9271737;28;21154;-75
2023/10/27 05:13:59;;;;;;;17.73;7.60;;;;;;;;;;9781270;28;20222;-74
2023/10/27 05:19:00;;;;;;;15.07;7.25;;;;;;;;;;10449909;28;20221;-71
2023/10/27 05:24:01;;;;;;;14.75;7.00;;;;;;;;;;10447908;28;20215;-72
2023/10/27 05:29:02;;;;;;;16.90;7.20;;;;;;;;;;10455350;28;20222;-73
2023/10/27 05:34:03;;;;;;;17.58;6.60;;;;;;;;;;10452849;28;20234;-74
2023/10/27 05:39:05;;;;;;;14.13;6.43;;;;;;;;;;10453681;28;20221;-73
2023/10/27 05:44:07;;;;;;;15.27;6.72;;;;;;;;;;10447605;28;20614;-73
2023/10/27 05:49:08;;;;;;;18.00;6.63;;;;;;;;;;10441688;28;20202;-71
2023/10/27 05:54:09;;;;;;;14.55;5.75;;;;;;;;;;10450538;28;20225;-72
2023/10/27 05:59:10;;;;;;;11.60;5.82;;;;;;;;;;10451683;28;20218;-72
2023/10/27 06:04:11;;;;;;;13.35;6.18;;;;;;;;;;10452238;28;20233;-74
2023/10/27 06:09:12;;;;;;;19.52;7.03;;;;;;;;;;10444825;28;20204;-75
2023/10/27 06:14:13;;;;;;;15.80;6.43;;;;;;;;;;10451330;28;20214;-71
2023/10/27 06:19:14;;;;;;;16.70;6.95;;;;;;;;;;10449741;28;20684;-72
2023/10/27 06:24:15;;;;;;;16.10;6.45;;;;;;;;;;10437089;28;20256;-74
2023/10/27 06:29:16;;;;;;;18.38;6.75;;;;;;;;;;10448348;28;20233;-71
2023/10/27 06:34:17;;;;;;;18.70;7.35;;;;;;;;;;10453982;28;20242;-71
2023/10/27 06:39:18;;;;;;;18.15;7.28;;;;;;;;;;10449874;28;20740;-72
2023/10/27 06:44:19;;;;;;;15.65;6.88;;;;;;;;;;10441839;28;20250;-74
2023/10/27 06:49:21;;;;;;;14.18;5.68;;;;;;;;;;10451303;28;20219;-73
2023/10/27 06:54:24;;;;;;;19.40;7.25;;;;;;;;;;10433505;28;20218;-72
2023/10/27 06:59:25;;;;;;;12.02;6.13;;;;;;;;;;10446513;28;20202;-73
2023/10/27 07:04:26;;;;;;;17.77;6.85;;;;;;;;;;10434342;28;20238;-73
2023/10/27 07:09:27;;;;;;;16.38;6.53;;;;;;;;;;10452190;28;20207;-76
2023/10/27 07:14:28;;;;;;;17.42;6.60;;;;;;;;;;9415900;28;21396;-74
2023/10/27 07:19:33;;;;;;;11.70;6.45;;;;;;;;;;9300461;28;21507;-75
2023/10/27 07:24:35;;;;;;;15.65;6.95;;;;;;;;;;9265405;28;20791;-75
2023/10/27 07:29:36;;;;;;;17.42;6.53;;;;;;;;;;9265974;28;22227;-75
2023/10/27 07:34:37;;;;;;;15.73;6.75;;;;;;;;;;9281531;28;21162;-75
2023/10/27 07:39:38;;;;;;;12.65;5.97;;;;;;;;;;9312623;28;22115;-75
2023/10/27 07:44:39;;;;;;;12.98;6.25;;;;;;;;;;9293097;28;20595;-75
2023/10/27 07:49:40;;;;;;;19.15;6.75;;;;;;;;;;9285339;28;20211;-75
2023/10/27 07:54:41;;;;;;;12.23;5.97;;;;;;;;;;9251769;28;21768;-75
2023/10/27 07:59:43;;;;;;;12.88;6.18;;;;;;;;;;9290935;28;21126;-74
2023/10/27 08:04:44;;;;;;;10.88;5.38;;;;;;;;;;9307217;28;20254;-77
2023/10/27 08:09:45;;;;;;;12.63;5.15;;;;;;;;;;9284241;28;20590;-75
2023/10/27 08:14:47;;;;;;;9.73;5.55;;;;;;;;;;9269218;28;21361;-77
2023/10/27 08:19:50;;;;;;;8.75;4.57;;;;;;;;;;9273005;28;20320;-76
2023/10/27 08:24:51;;;;;;;12.00;6.65;;;;;;;;;;9242163;28;20952;-73
2023/10/27 08:29:57;;;;;;;11.15;5.22;;;;;;;;;;9231461;28;21762;-75
2023/10/27 08:34:58;;;;;;;10.98;6.22;;;;;;;;;;9229739;28;21569;-74
2023/10/27 08:39:59;;;;;;;10.65;5.90;;;;;;;;;;9239950;28;20256;-73
2023/10/27 08:45:00;;;;;;;10.40;5.05;;;;;;;;;;9232635;28;20234;-75
2023/10/27 08:50:06;;;;;;;8.50;5.07;;;;;;;;;;9230884;28;21454;-74
2023/10/27 08:55:08;;;;;;;8.75;5.38;;;;;;;;;;9273118;28;21461;-74
2023/10/27 09:00:09;;;;;;;10.02;5.18;;;;;;;;;;9269247;28;21432;-73
2023/10/27 09:05:11;;;;;;;11.48;4.95;;;;;;;;;;9222333;28;21457;-73
2023/10/27 09:10:13;;;;;;;8.13;5.05;;;;;;;;;;9807382;28;20191;-72
2023/10/27 09:15:14;;;;;;;9.73;4.88;;;;;;;;;;10417944;28;20281;-71
2023/10/27 09:20:15;;;;;;;11.82;5.55;;;;;;;;;;10388484;28;20175;-73
2023/10/27 09:25:17;;;;;;;13.80;6.50;;;;;;;;;;10416630;28;20195;-72
2023/10/27 09:30:28;;;;;;;12.65;5.70;;;;;;;;;;10454875;28;20755;-73
2023/10/27 09:35:29;;;;;;;10.10;5.70;;;;;;;;;;10452689;28;20321;-72
2023/10/27 09:40:31;;;;;;;10.80;5.53;;;;;;;;;;10456949;28;20235;-71
2023/10/27 09:45:34;;;;;;;13.50;6.05;;;;;;;;;;10455720;28;20222;-72
2023/10/27 09:50:35;;;;;;;11.25;5.68;;;;;;;;;;10446976;28;20567;-71
2023/10/27 09:55:36;;;;;;;12.13;5.80;;;;;;;;;;10453964;28;20276;-73
2023/10/27 10:00:39;;;;;;;15.35;5.30;;;;;;;;;;10456404;28;20215;-72
2023/10/27 10:05:59;;;;;;;10.52;4.93;;;;;;;;;;10453538;28;20218;-72
2023/10/27 10:11:14;;;;;;;12.05;5.90;;;;;;;;;;10460035;28;20218;-75
2023/10/27 10:16:16;;;;;;;8.10;4.75;;;;;;;;;;10454999;28;20222;-74
2023/10/27 10:21:38;;;;;;;9.00;5.55;;;;;;;;;;10459351;28;20211;-75
2023/10/27 10:26:58;;;;;;;9.38;4.72;;;;;;;;;;10451480;28;20226;-76
2023/10/27 10:32:28;;;;;;;9.55;5.18;;;;;;;;;;10460150;28;20902;-75
2023/10/27 10:37:29;;;;;;;12.07;6.15;;;;;;;;;;10451991;28;20312;-75
2023/10/27 10:42:31;;;;;;;8.02;5.38;;;;;;;;;;10461220;28;21158;-74
2023/10/27 10:47:32;;;;;;;13.60;5.55;;;;;;;;;;10425371;28;20225;-74
2023/10/27 10:52:33;;;;;;;13.88;6.78;;;;;;;;;;10452437;28;20222;-75
2023/10/27 10:57:34;;;;;;;14.02;6.55;;;;;;;;;;10456591;28;20213;-75
2023/10/27 11:02:35;;;;;;;12.70;7.20;;;;;;;;;;10441988;28;20213;-74
2023/10/27 11:07:36;;;;;;;11.60;6.50;;;;;;;;;;10440801;28;20217;-76
2023/10/27 11:12:37;;;;;;;16.92;6.88;;;;;;;;;;10085449;28;21265;-74
2023/10/27 11:17:52;;;;;;;14.70;7.05;;;;;;;;;;9277538;28;21471;-74
2023/10/27 11:23:07;;;;;;;14.98;7.30;;;;;;;;;;9230837;28;21404;-73
2023/10/27 11:28:18;;;;;;;13.45;6.97;;;;;;;;;;9224969;28;21153;-73
2023/10/27 11:33:21;;;;;;;14.02;7.82;;;;;;;;;;9305962;28;21923;-74
2023/10/27 11:38:25;;;;;;;15.30;7.43;;;;;;;;;;9217159;28;21138;-74
2023/10/27 11:43:26;;;;;;;13.43;6.82;;;;;;;;;;9242631;28;21663;-74
2023/10/27 11:48:27;;;;;;;12.07;7.13;;;;;;;;;;9190942;28;22050;-75
2023/10/27 11:53:29;;;;;;;13.88;7.07;;;;;;;;;;9284204;28;22094;-74
2023/10/27 11:58:30;;;;;;;12.45;7.05;;;;;;;;;;9218730;28;21946;-75
2023/10/27 12:03:31;;;;;;;14.93;6.93;;;;;;;;;;9216086;28;21328;-75
2023/10/27 12:08:32;;;;;;;17.45;8.95;;;;;;;;;;9265876;28;21259;-76
2023/10/27 12:13:34;;;;;;;20.63;10.30;;;;;;;;;;9221074;28;20825;-74
2023/10/27 12:18:35;;;;;;;20.52;10.15;;;;;;;;;;9248489;28;21397;-75
2023/10/27 12:23:36;;;;;;;16.20;9.27;;;;;;;;;;9244968;28;21574;-73
2023/10/27 12:28:39;;;;;;;16.45;9.90;;;;;;;;;;9310612;28;21277;-74
2023/10/27 12:33:43;;;;;;;22.35;10.68;;;;;;;;;;9221469;28;21660;-74
2023/10/27 12:38:45;;;;;;;19.05;10.55;;;;;;;;;;9235792;28;20891;-74
2023/10/27 12:43:46;;;;;;;28.25;10.25;;;;;;;;;;9310249;28;21452;-74
2023/10/27 12:48:48;;;;;;;16.75;10.15;;;;;;;;;;9306413;28;21344;-73
2023/10/27 12:53:52;;;;;;;23.35;10.40;;;;;;;;;;9315599;28;20939;-74
2023/10/27 12:58:53;;;;;;;18.50;10.05;;;;;;;;;;9299834;28;22175;-74
2023/10/27 13:03:54;;;;;;;17.52;9.63;;;;;;;;;;9246480;28;20475;-74
2023/10/27 13:08:55;;;;;;;19.30;9.95;;;;;;;;;;10446784;28;20263;-75
2023/10/27 13:13:56;;;;;;;15.63;8.95;;;;;;;;;;10467309;28;20214;-76
2023/10/27 13:18:57;;;;;;;17.88;9.50;;;;;;;;;;10468595;28;20260;-77
2023/10/27 13:23:58;;;;;;;17.27;8.82;;;;;;;;;;10457139;28;20981;-75
2023/10/27 13:29:00;;;;;;;19.02;9.18;;;;;;;;;;10444043;28;20395;-76
2023/10/27 13:34:01;;;;;;;11.27;7.72;;;;;;;;;;10462744;28;20223;-75
2023/10/27 13:39:02;;;;;;;14.02;8.27;;;;;;;;;;10460740;28;20221;-76
2023/10/27 13:44:10;;;;;;;14.20;8.02;;;;;;;;;;10443133;28;20876;-73
2023/10/27 13:49:11;;;;;;;17.73;8.38;;;;;;;;;;10451381;28;20224;-75
2023/10/27 13:54:12;;;;;;;15.63;8.65;;;;;;;;;;10450849;28;20288;-75
2023/10/27 13:59:13;;;;;;;13.90;8.38;;;;;;;;;;10456563;28;21092;-75
2023/10/27 14:04:15;;;;;;;11.65;7.47;;;;;;;;;;10444802;28;21091;-76
2023/10/27 14:09:17;;;;;;;11.73;7.55;;;;;;;;;;10451907;28;20237;-76
2023/10/27 14:14:22;;;;;;;12.70;7.25;;;;;;;;;;10453712;28;20238;-75
2023/10/27 14:19:24;;;;;;;15.52;7.95;;;;;;;;;;10453561;28;20205;-75
2023/10/27 14:24:25;;;;;;;11.07;6.63;;;;;;;;;;10440908;28;20313;-75
2023/10/27 14:29:26;;;;;;;15.20;8.48;;;;;;;;;;10446567;28;20943;-75
2023/10/27 14:34:27;;;;;;;20.60;10.02;;;;;;;;;;10427826;28;20265;-75
2023/10/27 14:39:28;;;;;;;22.95;12.07;;;;;;;;;;10447155;28;20213;-75
2023/10/27 14:44:29;;;;;;;17.77;9.30;;;;;;;;;;10441675;28;20225;-75
2023/10/27 14:49:30;;;;;;;14.25;7.85;;;;;;;;;;10441477;28;20214;-74
2023/10/27 14:54:31;;;;;;;13.95;7.78;;;;;;;;;;10448216;28;20229;-75
2023/10/27 14:59:32;;;;;;;13.55;7.65;;;;;;;;;;10437055;28;21104;-75
2023/10/27 15:04:34;;;;;;;12.07;7.15;;;;;;;;;;10412026;28;20218;-75
2023/10/27 15:09:35;;;;;;;18.17;7.13;;;;;;;;;;10445638;28;20220;-75
2023/10/27 15:14:36;;;;;;;11.93;7.10;;;;;;;;;;10454793;28;20225;-74
2023/10/27 15:19:39;;;;;;;13.68;8.05;;;;;;;;;;10465447;28;20708;-74
2023/10/27 15:24:40;;;;;;;13.52;8.45;;;;;;;;;;10464583;28;20294;-74
2023/10/27 15:29:41;;;;;;;13.20;7.72;;;;;;;;;;10434871;28;20663;-75
2023/10/27 15:34:42;;;;;;;14.15;8.57;;;;;;;;;;10455601;28;20217;-75
2023/10/27 15:39:44;;;;;;;13.00;7.93;;;;;;;;;;10460437;28;20257;-75
2023/10/27 15:44:45;;;;;;;15.18;7.15;;;;;;;;;;10452736;28;20228;-75
2023/10/27 15:49:47;;;;;;;13.90;6.90;;;;;;;;;;10448049;28;20210;-75
2023/10/27 15:54:48;;;;;;;14.25;7.53;;;;;;;;;;10447492;28;20243;-76
2023/10/27 15:59:49;;;;;;;11.65;6.97;;;;;;;;;;10431567;28;20849;-75
2023/10/27 16:04:51;;;;;;;13.50;7.15;;;;;;;;;;10451763;28;20226;-75
2023/10/27 16:09:52;;;;;;;13.45;7.60;;;;;;;;;;10450163;28;20217;-73
2023/10/27 16:14:54;;;;;;;16.45;7.80;;;;;;;;;;10432330;28;20249;-73
2023/10/27 16:19:55;;;;;;;19.67;9.05;;;;;;;;;;10449607;28;20203;-74
2023/10/27 16:24:56;;;;;;;21.98;9.57;;;;;;;;;;10420068;28;20275;-75
2023/10/27 16:29:58;;;;;;;16.58;8.73;;;;;;;;;;10448829;28;20231;-74
2023/10/27 16:34:59;;;;;;;17.40;8.25;;;;;;;;;;10455081;28;20234;-74
2023/10/27 16:40:03;;;;;;;12.88;8.00;;;;;;;;;;10458869;28;20227;-74
2023/10/27 16:45:05;;;;;;;13.88;8.02;;;;;;;;;;10381898;28;20214;-74
2023/10/27 16:50:10;;;;;;;15.82;7.68;;;;;;;;;;10421148;28;20232;-74
2023/10/27 16:55:11;;;;;;;12.32;7.32;;;;;;;;;;10417711;28;20452;-74
2023/10/27 17:00:13;;;;;;;14.50;7.90;;;;;;;;;;10409548;28;20183;-74
2023/10/27 17:05:15;;;;;;;13.80;8.02;;;;;;;;;;10458558;28;20636;-74
2023/10/27 17:10:16;;;;;;;16.13;7.90;;;;;;;;;;10436012;28;20191;-77
2023/10/27 17:15:17;;;;;;;18.00;8.50;;;;;;;;;;10460049;28;20771;-76
2023/10/27 17:20:18;;;;;;;21.25;9.55;;;;;;;;;;10456618;28;20582;-74
2023/10/27 17:25:19;;;;;;;20.60;9.27;;;;;;;;;;10445132;28;20691;-75
2023/10/27 17:30:21;;;;;;;16.33;8.77;;;;;;;;;;10452812;28;20691;-76
2023/10/27 17:35:22;;;;;;;20.65;9.23;;;;;;;;;;10447616;28;20210;-76
2023/10/27 17:40:25;;;;;;;18.45;10.45;;;;;;;;;;10433080;28;20869;-75
2023/10/27 17:45:26;;;;;;;19.55;10.02;;;;;;;;;;10436294;28;20310;-75
2023/10/27 17:50:27;;;;;;;21.25;9.88;;;;;;;;;;10443483;28;20217;-76
2023/10/27 17:55:28;;;;;;;19.88;10.20;;;;;;;;;;10452000;28;20222;-75
2023/10/27 18:00:29;;;;;;;19.92;9.88;;;;;;;;;;10427950;28;20206;-76
2023/10/27 18:05:30;;;;;;;19.58;10.20;;;;;;;;;;10442903;28;20218;-77
2023/10/27 18:10:31;;;;;;;19.10;10.13;;;;;;;;;;10449103;28;20217;-75
2023/10/27 18:15:33;;;;;;;20.00;10.23;;;;;;;;;;10446265;28;20233;-76
2023/10/27 18:20:40;;;;;;;22.90;10.38;;;;;;;;;;10450327;28;20333;-75
2023/10/27 18:25:42;;;;;;;21.85;11.20;;;;;;;;;;10431538;28;20596;-76
2023/10/27 18:30:43;;;;;;;22.58;11.02;;;;;;;;;;10446923;28;20222;-75
2023/10/27 18:35:44;;;;;;;23.40;11.45;;;;;;;;;;10445647;28;20218;-75
2023/10/27 18:40:45;;;;;;;25.15;11.95;;;;;;;;;;10431258;28;20814;-76
2023/10/27 18:45:54;;;;;;;26.92;11.70;;;;;;;;;;10443489;28;20237;-76
2023/10/27 18:50:55;;;;;;;25.30;12.52;;;;;;;;;;10442250;28;20211;-76
2023/10/27 18:56:06;;;;;;;29.58;12.82;;;;;;;;;;10441083;28;20236;-75
2023/10/27 19:01:10;;;;;;;27.05;12.43;;;;;;;;;;10437593;28;20271;-75
2023/10/27 19:06:13;;;;;;;29.30;11.77;;;;;;;;;;10443974;28;20221;-75
2023/10/27 19:11:17;;;;;;;27.10;12.80;;;;;;;;;;10445819;28;20218;-77
2023/10/27 19:16:19;;;;;;;28.38;13.10;;;;;;;;;;10441876;28;20364;-75
2023/10/27 19:21:21;;;;;;;29.40;13.20;;;;;;;;;;10445017;28;20399;-75
2023/10/27 19:26:23;;;;;;;27.25;12.20;;;;;;;;;;10443259;28;20295;-76
2023/10/27 19:31:25;;;;;;;23.73;11.45;;;;;;;;;;10448826;28;20217;-77
2023/10/27 19:36:28;;;;;;;25.15;12.93;;;;;;;;;;10446178;28;20218;-76
2023/10/27 19:41:29;;;;;;;25.38;11.18;;;;;;;;;;10444426;28;20264;-76
2023/10/27 19:46:30;;;;;;;25.48;10.88;;;;;;;;;;10449377;28;20228;-76
2023/10/27 19:51:31;;;;;;;24.88;11.48;;;;;;;;;;10444042;28;20744;-76
2023/10/27 19:56:34;;;;;;;24.10;11.38;;;;;;;;;;10447776;28;20209;-77
2023/10/27 20:01:36;;;;;;;22.25;11.52;;;;;;;;;;10433456;28;20682;-76
2023/10/27 20:06:37;;;;;;;19.65;10.95;;;;;;;;;;10449511;28;20309;-76
2023/10/27 20:11:38;;;;;;;19.42;10.93;;;;;;;;;;10451193;28;20244;-76
2023/10/27 20:16:39;;;;;;;17.02;9.73;;;;;;;;;;10451898;28;20222;-77
2023/10/27 20:21:42;;;;;;;17.45;8.82;;;;;;;;;;10436969;28;20210;-76
2023/10/27 20:26:44;;;;;;;21.50;9.13;;;;;;;;;;10441857;28;20249;-75
2023/10/27 20:31:46;;;;;;;15.35;8.60;;;;;;;;;;10457917;28;20210;-78
2023/10/27 20:36:47;;;;;;;17.08;9.38;;;;;;;;;;10456938;28;20284;-75
2023/10/27 20:41:48;;;;;;;19.88;8.52;;;;;;;;;;10463132;28;20588;-76
2023/10/27 20:46:49;;;;;;;15.95;8.13;;;;;;;;;;10461014;28;20210;-74
2023/10/27 20:51:50;;;;;;;17.08;7.93;;;;;;;;;;10450124;28;20198;-75
2023/10/27 20:56:51;;;;;;;15.05;7.72;;;;;;;;;;10460089;28;20745;-75
2023/10/27 21:01:52;;;;;;;16.40;7.70;;;;;;;;;;10462637;28;21163;-77
2023/10/27 21:06:53;;;;;;;17.33;7.55;;;;;;;;;;10459663;28;20317;-76
2023/10/27 21:11:57;;;;;;;15.43;8.20;;;;;;;;;;10462863;28;20222;-78
2023/10/27 21:16:58;;;;;;;13.38;6.78;;;;;;;;;;10464481;28;20297;-75
2023/10/27 21:21:59;;;;;;;13.30;7.45;;;;;;;;;;10460586;28;20225;-79
2023/10/27 21:27:01;;;;;;;14.93;7.70;;;;;;;;;;10448457;28;20230;-77
2023/10/27 21:32:02;;;;;;;19.50;7.45;;;;;;;;;;10463488;28;20218;-77
2023/10/27 21:37:03;;;;;;;9.43;7.35;;;;;;;;;;10462331;28;20245;-77
2023/10/27 21:42:04;;;;;;;12.27;7.43;;;;;;;;;;10464670;28;20328;-74
2023/10/27 21:47:05;;;;;;;15.38;7.20;;;;;;;;;;10460437;28;20260;-77
2023/10/27 21:52:07;;;;;;;12.48;7.82;;;;;;;;;;10448304;28;20229;-75
2023/10/27 21:57:10;;;;;;;13.40;8.18;;;;;;;;;;10464361;28;20237;-75
2023/10/27 22:02:11;;;;;;;11.15;7.20;;;;;;;;;;10459694;28;20226;-77
2023/10/27 22:07:12;;;;;;;13.95;7.57;;;;;;;;;;10441123;28;21083;-78
2023/10/27 22:12:15;;;;;;;12.07;7.55;;;;;;;;;;10462096;28;20989;-75
2023/10/27 22:17:16;;;;;;;14.20;7.47;;;;;;;;;;10460874;28;20328;-77
2023/10/27 22:22:17;;;;;;;10.38;6.50;;;;;;;;;;10441832;28;20218;-75
2023/10/27 22:27:19;;;;;;;12.55;6.82;;;;;;;;;;10461283;28;20221;-77
2023/10/27 22:32:21;;;;;;;9.63;5.80;;;;;;;;;;10456208;28;20206;-76
2023/10/27 22:37:22;;;;;;;10.68;6.80;;;;;;;;;;10443764;28;20878;-76
2023/10/27 22:42:23;;;;;;;11.23;6.40;;;;;;;;;;10456652;28;20225;-74
2023/10/27 22:47:24;;;;;;;9.45;6.28;;;;;;;;;;10460624;28;20256;-73
2023/10/27 22:52:25;;;;;;;6.53;4.95;;;;;;;;;;10457687;28;20245;-75
2023/10/27 22:57:26;;;;;;;5.82;4.45;;;;;;;;;;10442173;28;20230;-74
2023/10/27 23:02:30;;;;;;;4.50;4.10;;;;;;;;;;10457198;28;20210;-74
2023/10/27 23:07:31;;;;;;;5.10;3.63;;;;;;;;;;10459541;28;20220;-74
2023/10/27 23:12:32;;;;;;;8.77;3.80;;;;;;;;;;10462774;28;20833;-77
2023/10/27 23:17:33;;;;;;;3.50;3.17;;;;;;;;;;10460393;28;20219;-75
2023/10/27 23:22:35;;;;;;;3.42;2.85;;;;;;;;;;10460881;28;20301;-75
2023/10/27 23:27:36;;;;;;;2.78;2.35;;;;;;;;;;10459247;28;20276;-73
2023/10/27 23:32:38;;;;;;;3.45;2.60;;;;;;;;;;10461445;28;20266;-75
2023/10/27 23:37:43;;;;;;;2.47;2.13;;;;;;;;;;10455237;28;20221;-74
2023/10/27 23:42:44;;;;;;;3.90;2.22;;;;;;;;;;10449816;28;20706;-73
2023/10/27 23:47:46;;;;;;;2.40;2.20;;;;;;;;;;10465778;28;20429;-74
2023/10/27 23:52:47;;;;;;;2.30;2.15;;;;;;;;;;10448225;28;20217;-77
2023/10/27 23:57:48;;;;;;;2.92;2.38;;;;;;;;;;10469601;28;20245;-73
